sensor_id;sensor_type;location;lat;lon;timestamp;temperature;humidity
21216;DHT22;10765;50.954;5.322;2022-09-03T00:00:42;17.20;99.90
21216;DHT22;10765;50.954;5.322;2022-09-03T00:03:15;17.10;99.90
21216;DHT22;10765;50.954;5.322;2022-09-03T00:05:48;17.00;99.90
21216;DHT22;10765;50.954;5.322;2022-09-03T00:08:20;17.00;99.90
21216;DHT22;10765;50.954;5.322;2022-09-03T00:10:53;17.00;99.90
21216;DHT22;10765;50.954;5.322;2022-09-03T00:13:24;16.80;99.90
21216;DHT22;10765;50.954;5.322;2022-09-03T00:15:55;16.80;99.90
21216;DHT22;10765;50.954;5.322;2022-09-03T00:18:26;16.70;99.90
21216;DHT22;10765;50.954;5.322;2022-09-03T00:21:00;16.60;99.90
21216;DHT22;10765;50.954;5.322;2022-09-03T00:23:34;16.70;99.90
21216;DHT22;10765;50.954;5.322;2022-09-03T00:26:13;16.70;99.90
21216;DHT22;10765;50.954;5.322;2022-09-03T00:28:44;16.60;99.90
21216;DHT22;10765;50.954;5.322;2022-09-03T00:31:17;16.60;99.90
21216;DHT22;10765;50.954;5.322;2022-09-03T00:33:47;16.60;99.90
21216;DHT22;10765;50.954;5.322;2022-09-03T00:36:20;16.60;99.90
21216;DHT22;10765;50.954;5.322;2022-09-03T00:38:48;16.60;99.90
21216;DHT22;10765;50.954;5.322;2022-09-03T00:41:23;16.70;99.90
21216;DHT22;10765;50.954;5.322;2022-09-03T00:44:15;16.70;99.90
21216;DHT22;10765;50.954;5.322;2022-09-03T00:46:51;16.70;99.90
21216;DHT22;10765;50.954;5.322;2022-09-03T00:49:27;16.70;99.90
21216;DHT22;10765;50.954;5.322;2022-09-03T00:52:04;16.70;99.90
21216;DHT22;10765;50.954;5.322;2022-09-03T00:54:38;16.80;99.90
21216;DHT22;10765;50.954;5.322;2022-09-03T00:57:18;16.70;99.90
21216;DHT22;10765;50.954;5.322;2022-09-03T00:59:56;16.70;99.90
21216;DHT22;10765;50.954;5.322;2022-09-03T01:02:34;16.60;99.90
21216;DHT22;10765;50.954;5.322;2022-09-03T01:05:09;16.50;99.90
21216;DHT22;10765;50.954;5.322;2022-09-03T01:07:42;16.60;99.90
21216;DHT22;10765;50.954;5.322;2022-09-03T01:10:21;16.60;99.90
21216;DHT22;10765;50.954;5.322;2022-09-03T01:12:58;16.60;99.90
21216;DHT22;10765;50.954;5.322;2022-09-03T01:15:31;16.60;99.90
21216;DHT22;10765;50.954;5.322;2022-09-03T01:18:09;16.60;99.90
21216;DHT22;10765;50.954;5.322;2022-09-03T01:20:51;16.70;99.90
21216;DHT22;10765;50.954;5.322;2022-09-03T01:23:45;16.70;99.90
21216;DHT22;10765;50.954;5.322;2022-09-03T01:26:29;16.80;99.90
21216;DHT22;10765;50.954;5.322;2022-09-03T01:29:09;16.90;99.90
21216;DHT22;10765;50.954;5.322;2022-09-03T01:31:46;17.00;98.90
21216;DHT22;10765;50.954;5.322;2022-09-03T01:34:22;16.90;97.60
21216;DHT22;10765;50.954;5.322;2022-09-03T01:36:56;16.80;99.80
21216;DHT22;10765;50.954;5.322;2022-09-03T01:39:31;16.80;99.40
21216;DHT22;10765;50.954;5.322;2022-09-03T01:42:12;16.90;96.90
21216;DHT22;10765;50.954;5.322;2022-09-03T01:45:06;17.10;91.50
21216;DHT22;10765;50.954;5.322;2022-09-03T01:47:46;17.10;90.80
21216;DHT22;10765;50.954;5.322;2022-09-03T01:50:25;17.00;91.20
21216;DHT22;10765;50.954;5.322;2022-09-03T01:52:57;16.90;92.60
21216;DHT22;10765;50.954;5.322;2022-09-03T01:55:32;17.10;87.90
21216;DHT22;10765;50.954;5.322;2022-09-03T01:58:08;17.00;87.60
21216;DHT22;10765;50.954;5.322;2022-09-03T02:00:42;17.10;85.70
21216;DHT22;10765;50.954;5.322;2022-09-03T02:03:10;17.20;78.50
21216;DHT22;10765;50.954;5.322;2022-09-03T02:05:38;17.30;69.60
21216;DHT22;10765;50.954;5.322;2022-09-03T02:08:09;17.20;74.60
21216;DHT22;10765;50.954;5.322;2022-09-03T02:10:39;17.20;73.00
21216;DHT22;10765;50.954;5.322;2022-09-03T02:13:09;17.20;71.00
21216;DHT22;10765;50.954;5.322;2022-09-03T02:15:40;17.20;68.30
21216;DHT22;10765;50.954;5.322;2022-09-03T02:18:12;17.20;70.30
21216;DHT22;10765;50.954;5.322;2022-09-03T02:20:40;17.20;70.00
21216;DHT22;10765;50.954;5.322;2022-09-03T02:23:08;17.10;71.20
21216;DHT22;10765;50.954;5.322;2022-09-03T02:25:38;17.20;69.70
21216;DHT22;10765;50.954;5.322;2022-09-03T02:28:06;17.20;71.50
21216;DHT22;10765;50.954;5.322;2022-09-03T02:30:34;17.20;68.60
21216;DHT22;10765;50.954;5.322;2022-09-03T02:33:03;17.20;67.70
21216;DHT22;10765;50.954;5.322;2022-09-03T02:35:30;17.20;67.40
21216;DHT22;10765;50.954;5.322;2022-09-03T02:37:56;17.30;66.80
21216;DHT22;10765;50.954;5.322;2022-09-03T02:40:34;17.30;64.60
21216;DHT22;10765;50.954;5.322;2022-09-03T02:43:01;17.30;63.40
21216;DHT22;10765;50.954;5.322;2022-09-03T02:45:29;17.50;55.10
21216;DHT22;10765;50.954;5.322;2022-09-03T02:47:59;17.50;51.50
21216;DHT22;10765;50.954;5.322;2022-09-03T02:50:27;17.50;51.00
21216;DHT22;10765;50.954;5.322;2022-09-03T02:52:54;17.50;52.80
21216;DHT22;10765;50.954;5.322;2022-09-03T02:55:21;17.50;53.00
21216;DHT22;10765;50.954;5.322;2022-09-03T02:57:48;17.60;47.90
21216;DHT22;10765;50.954;5.322;2022-09-03T03:00:16;17.60;43.10
21216;DHT22;10765;50.954;5.322;2022-09-03T03:02:43;17.60;41.50
21216;DHT22;10765;50.954;5.322;2022-09-03T03:05:17;17.60;40.20
21216;DHT22;10765;50.954;5.322;2022-09-03T03:07:48;17.50;44.40
21216;DHT22;10765;50.954;5.322;2022-09-03T03:10:15;17.40;48.90
21216;DHT22;10765;50.954;5.322;2022-09-03T03:12:42;17.40;46.90
21216;DHT22;10765;50.954;5.322;2022-09-03T03:15:09;17.30;48.90
21216;DHT22;10765;50.954;5.322;2022-09-03T03:17:36;17.50;44.60
21216;DHT22;10765;50.954;5.322;2022-09-03T03:20:04;17.40;42.60
21216;DHT22;10765;50.954;5.322;2022-09-03T03:22:31;17.40;42.40
21216;DHT22;10765;50.954;5.322;2022-09-03T03:24:59;17.40;41.20
21216;DHT22;10765;50.954;5.322;2022-09-03T03:27:26;17.40;40.50
21216;DHT22;10765;50.954;5.322;2022-09-03T03:29:52;17.40;41.00
21216;DHT22;10765;50.954;5.322;2022-09-03T03:32:19;17.60;33.70
21216;DHT22;10765;50.954;5.322;2022-09-03T03:34:46;17.50;31.60
21216;DHT22;10765;50.954;5.322;2022-09-03T03:37:13;17.60;28.00
21216;DHT22;10765;50.954;5.322;2022-09-03T03:39:40;17.40;30.20
21216;DHT22;10765;50.954;5.322;2022-09-03T03:42:08;17.30;32.80
21216;DHT22;10765;50.954;5.322;2022-09-03T03:44:35;17.30;32.00
21216;DHT22;10765;50.954;5.322;2022-09-03T03:47:02;17.30;30.20
21216;DHT22;10765;50.954;5.322;2022-09-03T03:49:30;17.40;26.80
21216;DHT22;10765;50.954;5.322;2022-09-03T03:51:57;17.40;24.00
21216;DHT22;10765;50.954;5.322;2022-09-03T03:54:24;17.50;22.20
21216;DHT22;10765;50.954;5.322;2022-09-03T03:56:51;17.40;24.60
21216;DHT22;10765;50.954;5.322;2022-09-03T03:59:19;17.40;25.30
21216;DHT22;10765;50.954;5.322;2022-09-03T04:01:46;17.30;26.00
21216;DHT22;10765;50.954;5.322;2022-09-03T04:04:15;17.30;26.20
21216;DHT22;10765;50.954;5.322;2022-09-03T04:06:42;17.50;22.70
21216;DHT22;10765;50.954;5.322;2022-09-03T04:09:09;17.50;19.60
21216;DHT22;10765;50.954;5.322;2022-09-03T04:11:36;17.50;21.60
21216;DHT22;10765;50.954;5.322;2022-09-03T04:14:03;17.50;22.40
21216;DHT22;10765;50.954;5.322;2022-09-03T04:16:31;17.50;19.50
21216;DHT22;10765;50.954;5.322;2022-09-03T04:18:58;17.60;26.00
21216;DHT22;10765;50.954;5.322;2022-09-03T04:21:27;17.60;16.50
21216;DHT22;10765;50.954;5.322;2022-09-03T04:23:55;17.60;16.90
21216;DHT22;10765;50.954;5.322;2022-09-03T04:26:24;17.60;13.90
21216;DHT22;10765;50.954;5.322;2022-09-03T04:28:51;17.70;11.90
21216;DHT22;10765;50.954;5.322;2022-09-03T04:31:19;17.60;12.80
21216;DHT22;10765;50.954;5.322;2022-09-03T04:33:48;17.60;14.80
21216;DHT22;10765;50.954;5.322;2022-09-03T04:36:17;17.50;16.20
21216;DHT22;10765;50.954;5.322;2022-09-03T04:38:46;17.50;17.50
21216;DHT22;10765;50.954;5.322;2022-09-03T04:41:16;17.50;19.70
21216;DHT22;10765;50.954;5.322;2022-09-03T04:43:43;17.40;19.40
21216;DHT22;10765;50.954;5.322;2022-09-03T04:46:12;17.50;18.90
21216;DHT22;10765;50.954;5.322;2022-09-03T04:48:39;17.50;17.20
21216;DHT22;10765;50.954;5.322;2022-09-03T04:51:09;17.50;17.30
21216;DHT22;10765;50.954;5.322;2022-09-03T04:53:39;17.60;15.10
21216;DHT22;10765;50.954;5.322;2022-09-03T04:56:12;17.70;13.00
21216;DHT22;10765;50.954;5.322;2022-09-03T04:58:39;17.70;10.90
21216;DHT22;10765;50.954;5.322;2022-09-03T05:01:08;17.70;12.00
21216;DHT22;10765;50.954;5.322;2022-09-03T05:03:35;17.70;11.40
21216;DHT22;10765;50.954;5.322;2022-09-03T05:06:03;17.60;13.90
21216;DHT22;10765;50.954;5.322;2022-09-03T05:08:32;17.60;13.90
21216;DHT22;10765;50.954;5.322;2022-09-03T05:11:02;17.60;15.60
21216;DHT22;10765;50.954;5.322;2022-09-03T05:13:29;17.60;13.90
21216;DHT22;10765;50.954;5.322;2022-09-03T05:15:58;17.70;12.30
21216;DHT22;10765;50.954;5.322;2022-09-03T05:18:26;17.80;8.30
21216;DHT22;10765;50.954;5.322;2022-09-03T05:20:57;18.10;1.70
21216;DHT22;10765;50.954;5.322;2022-09-03T05:23:25;18.10;1.00
21216;DHT22;10765;50.954;5.322;2022-09-03T05:25:56;18.10;1.00
21216;DHT22;10765;50.954;5.322;2022-09-03T05:28:24;18.10;1.00
21216;DHT22;10765;50.954;5.322;2022-09-03T05:30:58;18.10;1.00
21216;DHT22;10765;50.954;5.322;2022-09-03T05:33:25;18.30;1.00
21216;DHT22;10765;50.954;5.322;2022-09-03T05:35:52;18.50;1.00
21216;DHT22;10765;50.954;5.322;2022-09-03T05:38:19;18.30;1.00
21216;DHT22;10765;50.954;5.322;2022-09-03T05:40:46;18.40;1.00
21216;DHT22;10765;50.954;5.322;2022-09-03T05:43:14;18.20;1.00
21216;DHT22;10765;50.954;5.322;2022-09-03T05:45:42;18.20;1.00
21216;DHT22;10765;50.954;5.322;2022-09-03T05:48:09;18.30;1.00
21216;DHT22;10765;50.954;5.322;2022-09-03T05:50:35;18.20;1.00
21216;DHT22;10765;50.954;5.322;2022-09-03T05:53:02;18.30;1.00
21216;DHT22;10765;50.954;5.322;2022-09-03T05:55:29;18.50;1.00
21216;DHT22;10765;50.954;5.322;2022-09-03T05:57:56;18.60;1.00
21216;DHT22;10765;50.954;5.322;2022-09-03T06:00:24;18.80;1.00
21216;DHT22;10765;50.954;5.322;2022-09-03T06:02:52;19.20;1.00
21216;DHT22;10765;50.954;5.322;2022-09-03T06:05:19;19.60;1.00
21216;DHT22;10765;50.954;5.322;2022-09-03T06:07:46;20.10;1.00
21216;DHT22;10765;50.954;5.322;2022-09-03T06:10:14;20.60;1.00
21216;DHT22;10765;50.954;5.322;2022-09-03T06:12:42;20.80;1.00
21216;DHT22;10765;50.954;5.322;2022-09-03T06:15:14;20.50;1.00
21216;DHT22;10765;50.954;5.322;2022-09-03T06:17:42;20.20;1.00
21216;DHT22;10765;50.954;5.322;2022-09-03T06:20:10;20.00;1.00
21216;DHT22;10765;50.954;5.322;2022-09-03T06:22:36;19.70;1.00
21216;DHT22;10765;50.954;5.322;2022-09-03T06:25:04;19.70;1.00
21216;DHT22;10765;50.954;5.322;2022-09-03T06:27:32;19.80;1.00
21216;DHT22;10765;50.954;5.322;2022-09-03T06:29:59;19.80;1.00
21216;DHT22;10765;50.954;5.322;2022-09-03T06:32:25;19.90;1.00
21216;DHT22;10765;50.954;5.322;2022-09-03T06:34:55;19.80;1.00
21216;DHT22;10765;50.954;5.322;2022-09-03T06:37:22;19.80;1.00
21216;DHT22;10765;50.954;5.322;2022-09-03T06:39:48;19.50;1.00
21216;DHT22;10765;50.954;5.322;2022-09-03T06:42:16;19.50;1.00
21216;DHT22;10765;50.954;5.322;2022-09-03T06:44:43;19.30;1.00
21216;DHT22;10765;50.954;5.322;2022-09-03T06:47:10;19.20;1.00
21216;DHT22;10765;50.954;5.322;2022-09-03T06:49:37;19.10;1.00
21216;DHT22;10765;50.954;5.322;2022-09-03T06:52:05;19.00;1.00
21216;DHT22;10765;50.954;5.322;2022-09-03T06:54:32;19.10;1.00
21216;DHT22;10765;50.954;5.322;2022-09-03T06:56:59;19.40;1.00
21216;DHT22;10765;50.954;5.322;2022-09-03T06:59:26;20.80;1.00
21216;DHT22;10765;50.954;5.322;2022-09-03T07:01:53;22.60;1.00
21216;DHT22;10765;50.954;5.322;2022-09-03T07:04:20;24.10;1.00
21216;DHT22;10765;50.954;5.322;2022-09-03T07:06:49;25.40;1.00
21216;DHT22;10765;50.954;5.322;2022-09-03T07:09:17;26.60;1.00
21216;DHT22;10765;50.954;5.322;2022-09-03T07:11:45;26.50;1.00
21216;DHT22;10765;50.954;5.322;2022-09-03T07:14:17;27.90;1.00
21216;DHT22;10765;50.954;5.322;2022-09-03T07:16:44;29.20;1.00
21216;DHT22;10765;50.954;5.322;2022-09-03T07:19:12;30.10;1.00
21216;DHT22;10765;50.954;5.322;2022-09-03T07:21:39;30.70;1.00
21216;DHT22;10765;50.954;5.322;2022-09-03T07:24:07;29.40;1.00
21216;DHT22;10765;50.954;5.322;2022-09-03T07:26:37;28.70;1.00
21216;DHT22;10765;50.954;5.322;2022-09-03T07:29:05;28.30;1.00
21216;DHT22;10765;50.954;5.322;2022-09-03T07:31:34;27.30;1.00
21216;DHT22;10765;50.954;5.322;2022-09-03T07:34:03;26.60;1.00
21216;DHT22;10765;50.954;5.322;2022-09-03T07:36:34;26.20;1.00
21216;DHT22;10765;50.954;5.322;2022-09-03T07:39:03;26.00;1.00
21216;DHT22;10765;50.954;5.322;2022-09-03T07:41:30;26.60;1.00
21216;DHT22;10765;50.954;5.322;2022-09-03T07:43:59;27.50;1.00
21216;DHT22;10765;50.954;5.322;2022-09-03T07:46:31;28.30;1.00
21216;DHT22;10765;50.954;5.322;2022-09-03T07:48:59;28.30;1.00
21216;DHT22;10765;50.954;5.322;2022-09-03T07:51:28;28.70;1.00
21216;DHT22;10765;50.954;5.322;2022-09-03T07:53:57;29.70;1.00
21216;DHT22;10765;50.954;5.322;2022-09-03T07:56:25;30.80;1.00
21216;DHT22;10765;50.954;5.322;2022-09-03T07:58:52;32.00;1.00
21216;DHT22;10765;50.954;5.322;2022-09-03T08:01:22;33.10;99.90
21216;DHT22;10765;50.954;5.322;2022-09-03T08:03:51;34.00;99.90
21216;DHT22;10765;50.954;5.322;2022-09-03T08:06:21;34.20;99.90
21216;DHT22;10765;50.954;5.322;2022-09-03T08:08:48;33.40;99.90
21216;DHT22;10765;50.954;5.322;2022-09-03T08:11:17;32.70;99.90
21216;DHT22;10765;50.954;5.322;2022-09-03T08:13:47;31.90;99.90
21216;DHT22;10765;50.954;5.322;2022-09-03T08:16:16;31.90;99.90
21216;DHT22;10765;50.954;5.322;2022-09-03T08:18:45;31.70;99.90
21216;DHT22;10765;50.954;5.322;2022-09-03T08:21:17;31.30;99.90
21216;DHT22;10765;50.954;5.322;2022-09-03T08:23:46;31.00;99.90
21216;DHT22;10765;50.954;5.322;2022-09-03T08:26:14;31.10;99.90
21216;DHT22;10765;50.954;5.322;2022-09-03T08:28:42;31.70;99.90
21216;DHT22;10765;50.954;5.322;2022-09-03T08:31:11;32.90;99.90
21216;DHT22;10765;50.954;5.322;2022-09-03T08:33:38;33.40;99.90
21216;DHT22;10765;50.954;5.322;2022-09-03T08:36:10;33.30;99.90
21216;DHT22;10765;50.954;5.322;2022-09-03T08:38:39;32.20;99.90
21216;DHT22;10765;50.954;5.322;2022-09-03T08:41:11;32.00;99.90
21216;DHT22;10765;50.954;5.322;2022-09-03T08:43:55;31.90;99.90
21216;DHT22;10765;50.954;5.322;2022-09-03T08:46:33;31.80;99.90
21216;DHT22;10765;50.954;5.322;2022-09-03T08:49:03;31.60;99.90
21216;DHT22;10765;50.954;5.322;2022-09-03T08:51:32;31.30;99.90
21216;DHT22;10765;50.954;5.322;2022-09-03T08:54:05;31.40;99.90
21216;DHT22;10765;50.954;5.322;2022-09-03T08:56:36;31.90;99.90
21216;DHT22;10765;50.954;5.322;2022-09-03T08:59:04;31.30;99.90
21216;DHT22;10765;50.954;5.322;2022-09-03T09:01:38;30.80;99.90
21216;DHT22;10765;50.954;5.322;2022-09-03T09:04:17;30.60;99.90
21216;DHT22;10765;50.954;5.322;2022-09-03T09:06:55;30.10;1.00
21216;DHT22;10765;50.954;5.322;2022-09-03T09:09:30;29.80;1.00
21216;DHT22;10765;50.954;5.322;2022-09-03T09:12:08;29.90;1.00
21216;DHT22;10765;50.954;5.322;2022-09-03T09:14:42;29.70;1.00
21216;DHT22;10765;50.954;5.322;2022-09-03T09:17:26;29.70;1.00
21216;DHT22;10765;50.954;5.322;2022-09-03T09:20:05;29.40;1.00
21216;DHT22;10765;50.954;5.322;2022-09-03T09:22:38;30.20;1.00
21216;DHT22;10765;50.954;5.322;2022-09-03T09:25:10;31.40;99.90
21216;DHT22;10765;50.954;5.322;2022-09-03T09:27:47;33.30;99.90
21216;DHT22;10765;50.954;5.322;2022-09-03T09:30:17;35.40;99.90
21216;DHT22;10765;50.954;5.322;2022-09-03T09:32:44;35.20;99.90
21216;DHT22;10765;50.954;5.322;2022-09-03T09:35:12;36.00;99.90
21216;DHT22;10765;50.954;5.322;2022-09-03T09:37:51;36.70;99.90
21216;DHT22;10765;50.954;5.322;2022-09-03T09:40:27;36.40;99.90
21216;DHT22;10765;50.954;5.322;2022-09-03T09:43:07;36.40;99.90
21216;DHT22;10765;50.954;5.322;2022-09-03T09:45:36;36.30;99.90
21216;DHT22;10765;50.954;5.322;2022-09-03T09:48:09;36.50;99.90
21216;DHT22;10765;50.954;5.322;2022-09-03T09:50:38;36.40;99.90
21216;DHT22;10765;50.954;5.322;2022-09-03T09:53:09;38.60;99.90
21216;DHT22;10765;50.954;5.322;2022-09-03T09:55:52;41.20;99.90
21216;DHT22;10765;50.954;5.322;2022-09-03T09:58:23;40.10;99.90
21216;DHT22;10765;50.954;5.322;2022-09-03T10:00:55;39.90;99.90
21216;DHT22;10765;50.954;5.322;2022-09-03T10:03:23;38.60;99.90
21216;DHT22;10765;50.954;5.322;2022-09-03T10:06:06;38.00;99.90
21216;DHT22;10765;50.954;5.322;2022-09-03T10:08:49;38.20;99.90
21216;DHT22;10765;50.954;5.322;2022-09-03T10:11:19;38.40;99.90
21216;DHT22;10765;50.954;5.322;2022-09-03T10:13:48;37.70;99.90
21216;DHT22;10765;50.954;5.322;2022-09-03T10:16:21;36.80;99.90
21216;DHT22;10765;50.954;5.322;2022-09-03T10:18:59;36.00;99.90
21216;DHT22;10765;50.954;5.322;2022-09-03T10:21:31;35.70;99.90
21216;DHT22;10765;50.954;5.322;2022-09-03T10:24:14;34.70;99.90
21216;DHT22;10765;50.954;5.322;2022-09-03T10:26:45;34.40;99.90
21216;DHT22;10765;50.954;5.322;2022-09-03T10:29:17;34.10;99.90
21216;DHT22;10765;50.954;5.322;2022-09-03T10:31:54;34.10;99.90
21216;DHT22;10765;50.954;5.322;2022-09-03T10:34:30;34.20;99.90
21216;DHT22;10765;50.954;5.322;2022-09-03T10:37:05;34.50;99.90
21216;DHT22;10765;50.954;5.322;2022-09-03T10:39:46;34.80;99.90
21216;DHT22;10765;50.954;5.322;2022-09-03T10:42:25;35.90;99.90
21216;DHT22;10765;50.954;5.322;2022-09-03T10:45:01;36.20;99.90
21216;DHT22;10765;50.954;5.322;2022-09-03T10:48:02;35.90;99.90
21216;DHT22;10765;50.954;5.322;2022-09-03T10:50:39;36.70;99.90
21216;DHT22;10765;50.954;5.322;2022-09-03T10:53:13;39.10;99.90
21216;DHT22;10765;50.954;5.322;2022-09-03T10:55:56;40.10;99.90
21216;DHT22;10765;50.954;5.322;2022-09-03T10:58:34;42.60;99.90
21216;DHT22;10765;50.954;5.322;2022-09-03T11:01:11;45.20;99.90
21216;DHT22;10765;50.954;5.322;2022-09-03T11:03:43;44.60;99.90
21216;DHT22;10765;50.954;5.322;2022-09-03T11:06:16;44.90;99.90
21216;DHT22;10765;50.954;5.322;2022-09-03T11:08:52;43.30;99.90
21216;DHT22;10765;50.954;5.322;2022-09-03T11:11:25;45.00;99.90
21216;DHT22;10765;50.954;5.322;2022-09-03T11:13:57;45.40;99.90
21216;DHT22;10765;50.954;5.322;2022-09-03T11:16:31;46.10;99.90
21216;DHT22;10765;50.954;5.322;2022-09-03T11:19:02;45.70;99.90
21216;DHT22;10765;50.954;5.322;2022-09-03T11:21:31;44.90;99.90
21216;DHT22;10765;50.954;5.322;2022-09-03T11:24:04;45.70;99.90
21216;DHT22;10765;50.954;5.322;2022-09-03T11:26:35;45.50;99.90
21216;DHT22;10765;50.954;5.322;2022-09-03T11:29:08;44.40;99.90
21216;DHT22;10765;50.954;5.322;2022-09-03T11:31:45;43.40;99.90
21216;DHT22;10765;50.954;5.322;2022-09-03T11:34:26;43.10;99.90
21216;DHT22;10765;50.954;5.322;2022-09-03T11:37:04;43.10;99.90
21216;DHT22;10765;50.954;5.322;2022-09-03T11:39:34;44.90;99.90
21216;DHT22;10765;50.954;5.322;2022-09-03T11:42:08;44.70;99.90
21216;DHT22;10765;50.954;5.322;2022-09-03T11:44:37;45.40;99.90
21216;DHT22;10765;50.954;5.322;2022-09-03T11:47:14;46.00;99.90
21216;DHT22;10765;50.954;5.322;2022-09-03T11:49:46;45.80;99.90
21216;DHT22;10765;50.954;5.322;2022-09-03T11:52:25;46.00;99.90
21216;DHT22;10765;50.954;5.322;2022-09-03T11:54:52;45.50;99.90
21216;DHT22;10765;50.954;5.322;2022-09-03T11:57:26;45.10;99.90
21216;DHT22;10765;50.954;5.322;2022-09-03T11:59:54;45.40;99.90
21216;DHT22;10765;50.954;5.322;2022-09-03T12:02:35;42.40;99.90
21216;DHT22;10765;50.954;5.322;2022-09-03T12:05:15;37.80;99.90
21216;DHT22;10765;50.954;5.322;2022-09-03T12:08:03;39.00;99.90
21216;DHT22;10765;50.954;5.322;2022-09-03T12:10:38;42.90;99.90
21216;DHT22;10765;50.954;5.322;2022-09-03T12:13:35;44.30;99.90
21216;DHT22;10765;50.954;5.322;2022-09-03T12:16:30;42.50;99.90
21216;DHT22;10765;50.954;5.322;2022-09-03T12:19:08;43.30;99.90
21216;DHT22;10765;50.954;5.322;2022-09-03T12:21:37;39.10;99.90
21216;DHT22;10765;50.954;5.322;2022-09-03T12:24:06;35.90;99.90
21216;DHT22;10765;50.954;5.322;2022-09-03T12:26:39;34.20;1.00
21216;DHT22;10765;50.954;5.322;2022-09-03T12:29:20;32.80;1.00
21216;DHT22;10765;50.954;5.322;2022-09-03T12:31:48;31.50;1.00
21216;DHT22;10765;50.954;5.322;2022-09-03T12:34:17;31.10;1.00
21216;DHT22;10765;50.954;5.322;2022-09-03T12:36:46;31.30;1.00
21216;DHT22;10765;50.954;5.322;2022-09-03T12:39:15;31.50;1.00
21216;DHT22;10765;50.954;5.322;2022-09-03T12:41:55;31.10;1.00
21216;DHT22;10765;50.954;5.322;2022-09-03T12:44:26;31.10;1.00
21216;DHT22;10765;50.954;5.322;2022-09-03T12:47:05;30.90;1.00
21216;DHT22;10765;50.954;5.322;2022-09-03T12:49:36;30.50;1.00
21216;DHT22;10765;50.954;5.322;2022-09-03T12:52:10;30.40;1.00
21216;DHT22;10765;50.954;5.322;2022-09-03T12:54:47;30.30;1.00
21216;DHT22;10765;50.954;5.322;2022-09-03T12:57:20;30.00;1.00
21216;DHT22;10765;50.954;5.322;2022-09-03T12:59:53;29.60;1.00
21216;DHT22;10765;50.954;5.322;2022-09-03T13:02:26;29.40;1.00
21216;DHT22;10765;50.954;5.322;2022-09-03T13:04:54;29.30;1.00
21216;DHT22;10765;50.954;5.322;2022-09-03T13:07:26;29.30;1.00
21216;DHT22;10765;50.954;5.322;2022-09-03T13:10:00;29.30;1.00
21216;DHT22;10765;50.954;5.322;2022-09-03T13:12:32;29.40;1.00
21216;DHT22;10765;50.954;5.322;2022-09-03T13:15:07;29.40;1.00
21216;DHT22;10765;50.954;5.322;2022-09-03T13:17:54;29.60;1.00
21216;DHT22;10765;50.954;5.322;2022-09-03T13:20:34;29.70;1.00
21216;DHT22;10765;50.954;5.322;2022-09-03T13:23:25;29.80;1.00
21216;DHT22;10765;50.954;5.322;2022-09-03T13:26:01;33.70;1.00
21216;DHT22;10765;50.954;5.322;2022-09-03T13:28:44;37.20;99.90
21216;DHT22;10765;50.954;5.322;2022-09-03T13:31:27;34.90;99.90
21216;DHT22;10765;50.954;5.322;2022-09-03T13:34:00;33.00;1.00
21216;DHT22;10765;50.954;5.322;2022-09-03T13:36:32;31.40;1.00
21216;DHT22;10765;50.954;5.322;2022-09-03T13:39:03;30.70;1.00
21216;DHT22;10765;50.954;5.322;2022-09-03T13:41:36;30.30;1.00
21216;DHT22;10765;50.954;5.322;2022-09-03T13:44:09;30.20;1.00
21216;DHT22;10765;50.954;5.322;2022-09-03T13:46:44;30.10;1.00
21216;DHT22;10765;50.954;5.322;2022-09-03T13:49:21;35.30;99.90
21216;DHT22;10765;50.954;5.322;2022-09-03T13:52:12;40.00;99.90
21216;DHT22;10765;50.954;5.322;2022-09-03T13:54:52;43.30;99.90
21216;DHT22;10765;50.954;5.322;2022-09-03T13:57:31;43.10;99.90
21216;DHT22;10765;50.954;5.322;2022-09-03T14:00:03;43.20;99.90
21216;DHT22;10765;50.954;5.322;2022-09-03T14:02:46;41.20;99.90
21216;DHT22;10765;50.954;5.322;2022-09-03T14:05:22;41.20;99.90
21216;DHT22;10765;50.954;5.322;2022-09-03T14:08:00;38.30;99.90
21216;DHT22;10765;50.954;5.322;2022-09-03T14:10:43;34.60;99.90
21216;DHT22;10765;50.954;5.322;2022-09-03T14:13:23;32.00;1.00
21216;DHT22;10765;50.954;5.322;2022-09-03T14:15:59;30.70;1.00
21216;DHT22;10765;50.954;5.322;2022-09-03T14:18:40;29.60;1.00
21216;DHT22;10765;50.954;5.322;2022-09-03T14:21:12;29.10;1.00
21216;DHT22;10765;50.954;5.322;2022-09-03T14:23:45;28.80;1.00
21216;DHT22;10765;50.954;5.322;2022-09-03T14:26:17;29.30;1.00
21216;DHT22;10765;50.954;5.322;2022-09-03T14:28:48;29.50;1.00
21216;DHT22;10765;50.954;5.322;2022-09-03T14:31:23;29.30;1.00
21216;DHT22;10765;50.954;5.322;2022-09-03T14:33:59;28.80;1.00
21216;DHT22;10765;50.954;5.322;2022-09-03T14:36:34;28.20;1.00
21216;DHT22;10765;50.954;5.322;2022-09-03T14:39:22;27.80;1.00
21216;DHT22;10765;50.954;5.322;2022-09-03T14:50:37;27.50;1.00
21216;DHT22;10765;50.954;5.322;2022-09-03T14:56:21;27.50;1.00
21216;DHT22;10765;50.954;5.322;2022-09-03T15:01:54;27.30;1.00
21216;DHT22;10765;50.954;5.322;2022-09-03T15:04:47;27.10;1.00
21216;DHT22;10765;50.954;5.322;2022-09-03T15:07:25;27.00;1.00
21216;DHT22;10765;50.954;5.322;2022-09-03T15:10:03;27.20;1.00
21216;DHT22;10765;50.954;5.322;2022-09-03T15:12:36;27.40;1.00
21216;DHT22;10765;50.954;5.322;2022-09-03T15:15:07;27.40;1.00
21216;DHT22;10765;50.954;5.322;2022-09-03T15:17:47;27.20;1.00
21216;DHT22;10765;50.954;5.322;2022-09-03T15:20:21;27.20;1.00
21216;DHT22;10765;50.954;5.322;2022-09-03T15:23:10;27.30;1.00
21216;DHT22;10765;50.954;5.322;2022-09-03T15:28:52;27.10;1.00
21216;DHT22;10765;50.954;5.322;2022-09-03T15:31:26;27.00;1.00
21216;DHT22;10765;50.954;5.322;2022-09-03T15:34:00;27.10;1.00
21216;DHT22;10765;50.954;5.322;2022-09-03T15:36:34;27.10;1.00
21216;DHT22;10765;50.954;5.322;2022-09-03T15:39:06;26.90;1.00
21216;DHT22;10765;50.954;5.322;2022-09-03T15:41:42;26.70;1.00
21216;DHT22;10765;50.954;5.322;2022-09-03T15:44:12;26.60;1.00
21216;DHT22;10765;50.954;5.322;2022-09-03T15:46:55;26.30;1.00
21216;DHT22;10765;50.954;5.322;2022-09-03T15:49:46;26.10;1.00
21216;DHT22;10765;50.954;5.322;2022-09-03T15:52:28;26.00;1.00
21216;DHT22;10765;50.954;5.322;2022-09-03T15:55:01;25.80;1.00
21216;DHT22;10765;50.954;5.322;2022-09-03T15:57:36;25.70;1.00
21216;DHT22;10765;50.954;5.322;2022-09-03T16:00:09;25.80;1.00
21216;DHT22;10765;50.954;5.322;2022-09-03T16:02:41;25.90;1.00
21216;DHT22;10765;50.954;5.322;2022-09-03T16:05:15;25.90;1.00
21216;DHT22;10765;50.954;5.322;2022-09-03T16:08:08;26.10;1.00
21216;DHT22;10765;50.954;5.322;2022-09-03T16:10:47;26.20;1.00
21216;DHT22;10765;50.954;5.322;2022-09-03T16:13:35;26.30;1.00
21216;DHT22;10765;50.954;5.322;2022-09-03T16:16:06;26.10;1.00
21216;DHT22;10765;50.954;5.322;2022-09-03T16:18:37;26.10;1.00
21216;DHT22;10765;50.954;5.322;2022-09-03T16:21:09;26.00;1.00
21216;DHT22;10765;50.954;5.322;2022-09-03T16:23:41;26.00;1.00
21216;DHT22;10765;50.954;5.322;2022-09-03T16:26:19;26.00;1.00
21216;DHT22;10765;50.954;5.322;2022-09-03T16:28:52;25.80;1.00